sensor_id;sensor_type;location;lat;lon;timestamp;pressure;altitude;pressure_sealevel;temperature;humidity
63700;BME280;49845;47.130;142.766;2024-03-29T00:00:06;100063.88;;;5.35;58.83
63700;BME280;49845;47.130;142.766;2024-03-29T00:02:34;100052.66;;;5.45;58.87
63700;BME280;49845;47.130;142.766;2024-03-29T00:05:03;100057.88;;;5.67;58.76
63700;BME280;49845;47.130;142.766;2024-03-29T00:07:31;100049.19;;;5.83;57.90
63700;BME280;49845;47.130;142.766;2024-03-29T00:09:58;100035.34;;;5.84;58.00
63700;BME280;49845;47.130;142.766;2024-03-29T00:12:25;100033.69;;;5.97;57.94
63700;BME280;49845;47.130;142.766;2024-03-29T00:14:53;100018.09;;;6.01;57.33
63700;BME280;49845;47.130;142.766;2024-03-29T00:17:20;100012.91;;;6.08;57.09
63700;BME280;49845;47.130;142.766;2024-03-29T00:19:48;100012.91;;;6.04;56.12
63700;BME280;49845;47.130;142.766;2024-03-29T00:22:17;100005.16;;;5.97;56.23
63700;BME280;49845;47.130;142.766;2024-03-29T00:24:44;99995.63;;;6.07;57.01
63700;BME280;49845;47.130;142.766;2024-03-29T00:27:12;100000.78;;;6.13;56.12
63700;BME280;49845;47.130;142.766;2024-03-29T00:29:39;99995.56;;;6.22;56.17
63700;BME280;49845;47.130;142.766;2024-03-29T00:32:07;99997.22;;;6.38;56.32
63700;BME280;49845;47.130;142.766;2024-03-29T00:34:35;99985.09;;;6.50;55.56
63700;BME280;49845;47.130;142.766;2024-03-29T00:37:02;99972.88;;;6.64;55.17
63700;BME280;49845;47.130;142.766;2024-03-29T00:39:31;99978.03;;;6.73;54.85
63700;BME280;49845;47.130;142.766;2024-03-29T00:41:58;99974.63;;;6.68;55.05
63700;BME280;49845;47.130;142.766;2024-03-29T00:44:26;99974.56;;;6.77;54.84
63700;BME280;49845;47.130;142.766;2024-03-29T00:46:53;99971.94;;;6.83;54.82
63700;BME280;49845;47.130;142.766;2024-03-29T00:49:21;99965.00;;;6.85;54.98
63700;BME280;49845;47.130;142.766;2024-03-29T00:51:48;99952.91;;;6.78;54.94
63700;BME280;49845;47.130;142.766;2024-03-29T00:54:16;99951.28;;;6.65;54.99
63700;BME280;49845;47.130;142.766;2024-03-29T00:56:45;99953.00;;;6.61;55.69
63700;BME280;49845;47.130;142.766;2024-03-29T00:59:12;99936.56;;;6.61;55.46
63700;BME280;49845;47.130;142.766;2024-03-29T01:01:39;99936.53;;;6.64;55.45
63700;BME280;49845;47.130;142.766;2024-03-29T01:04:07;99928.75;;;6.65;55.65
63700;BME280;49845;47.130;142.766;2024-03-29T01:06:34;99930.47;;;6.68;55.52
63700;BME280;49845;47.130;142.766;2024-03-29T01:09:02;99921.00;;;6.58;56.22
63700;BME280;49845;47.130;142.766;2024-03-29T01:11:30;99919.31;;;6.57;56.34
63700;BME280;49845;47.130;142.766;2024-03-29T01:13:59;99928.00;;;6.50;57.21
63700;BME280;49845;47.130;142.766;2024-03-29T01:16:26;99907.25;;;6.43;57.27
63700;BME280;49845;47.130;142.766;2024-03-29T01:18:54;99906.44;;;6.32;58.29
63700;BME280;49845;47.130;142.766;2024-03-29T01:21:21;99914.31;;;6.11;60.02
63700;BME280;49845;47.130;142.766;2024-03-29T01:23:49;99911.75;;;6.09;60.68
63700;BME280;49845;47.130;142.766;2024-03-29T01:26:16;99905.72;;;6.02;61.47
63700;BME280;49845;47.130;142.766;2024-03-29T01:28:44;99897.06;;;5.91;62.58
63700;BME280;49845;47.130;142.766;2024-03-29T01:31:14;99893.59;;;5.92;64.28
63700;BME280;49845;47.130;142.766;2024-03-29T01:33:41;99893.63;;;5.83;65.59
63700;BME280;49845;47.130;142.766;2024-03-29T01:36:09;99843.63;;;5.38;67.25
63700;BME280;49845;47.130;142.766;2024-03-29T01:38:38;99886.75;;;5.63;67.87
63700;BME280;49845;47.130;142.766;2024-03-29T01:41:05;99878.97;;;5.68;68.55
63700;BME280;49845;47.130;142.766;2024-03-29T01:43:33;99876.38;;;5.73;69.25
63700;BME280;49845;47.130;142.766;2024-03-29T01:46:02;99869.47;;;5.75;69.60
63700;BME280;49845;47.130;142.766;2024-03-29T01:48:34;99877.22;;;5.82;70.43
63700;BME280;49845;47.130;142.766;2024-03-29T01:51:04;99865.09;;;5.88;70.20
63700;BME280;49845;47.130;142.766;2024-03-29T01:53:33;99856.41;;;6.01;70.63
63700;BME280;49845;47.130;142.766;2024-03-29T01:56:03;99862.38;;;6.23;70.43
63700;BME280;49845;47.130;142.766;2024-03-29T01:58:33;99860.56;;;6.40;70.26
63700;BME280;49845;47.130;142.766;2024-03-29T02:01:03;99843.19;;;6.48;70.50
63700;BME280;49845;47.130;142.766;2024-03-29T02:03:36;99846.63;;;6.57;70.38
63700;BME280;49845;47.130;142.766;2024-03-29T02:06:06;99841.31;;;6.72;71.00
63700;BME280;49845;47.130;142.766;2024-03-29T02:08:37;99823.91;;;6.83;70.75
63700;BME280;49845;47.130;142.766;2024-03-29T02:11:06;99817.69;;;7.01;70.49
63700;BME280;49845;47.130;142.766;2024-03-29T02:13:35;99799.44;;;7.09;70.28
63700;BME280;49845;47.130;142.766;2024-03-29T02:16:04;99790.56;;;7.28;69.73
63700;BME280;49845;47.130;142.766;2024-03-29T02:18:35;99782.69;;;7.38;69.67
63700;BME280;49845;47.130;142.766;2024-03-29T02:21:04;99778.47;;;7.27;69.00
63700;BME280;49845;47.130;142.766;2024-03-29T02:23:37;99762.97;;;7.18;69.56
63700;BME280;49845;47.130;142.766;2024-03-29T02:26:07;99759.59;;;7.10;69.96
63700;BME280;49845;47.130;142.766;2024-03-29T02:28:36;99755.41;;;6.94;70.35
63700;BME280;49845;47.130;142.766;2024-03-29T02:31:05;99744.16;;;6.93;70.88
63700;BME280;49845;47.130;142.766;2024-03-29T02:33:35;99733.81;;;6.88;70.92
63700;BME280;49845;47.130;142.766;2024-03-29T02:36:04;99734.66;;;6.90;71.44
63700;BME280;49845;47.130;142.766;2024-03-29T02:38:33;99732.13;;;6.87;71.86
63700;BME280;49845;47.130;142.766;2024-03-29T02:41:02;99723.44;;;6.91;72.31
63700;BME280;49845;47.130;142.766;2024-03-29T02:43:33;99717.53;;;6.71;73.05
63700;BME280;49845;47.130;142.766;2024-03-29T02:46:02;99705.41;;;6.75;73.42
63700;BME280;49845;47.130;142.766;2024-03-29T02:48:31;99701.03;;;6.78;74.29
63700;BME280;49845;47.130;142.766;2024-03-29T02:50:58;99684.69;;;6.72;74.00
63700;BME280;49845;47.130;142.766;2024-03-29T02:53:27;99679.44;;;6.75;74.12
63700;BME280;49845;47.130;142.766;2024-03-29T02:55:55;99675.09;;;6.75;74.57
63700;BME280;49845;47.130;142.766;2024-03-29T02:58:24;99671.66;;;6.73;74.53
63700;BME280;49845;47.130;142.766;2024-03-29T03:00:53;99659.44;;;6.84;74.93
63700;BME280;49845;47.130;142.766;2024-03-29T03:03:26;99652.44;;;6.89;74.89
63700;BME280;49845;47.130;142.766;2024-03-29T03:05:55;99638.41;;;7.06;75.13
63700;BME280;49845;47.130;142.766;2024-03-29T03:08:22;99623.75;;;7.00;74.91
63700;BME280;49845;47.130;142.766;2024-03-29T03:11:08;99616.00;;;6.96;75.46
63700;BME280;49845;47.130;142.766;2024-03-29T03:13:37;99602.16;;;6.97;75.29
63700;BME280;49845;47.130;142.766;2024-03-29T03:16:07;99605.88;;;6.74;76.44
63700;BME280;49845;47.130;142.766;2024-03-29T03:18:36;99585.34;;;6.53;77.73
63700;BME280;49845;47.130;142.766;2024-03-29T03:21:05;99580.28;;;6.40;78.70
63700;BME280;49845;47.130;142.766;2024-03-29T03:23:33;99574.28;;;6.34;79.60
63700;BME280;49845;47.130;142.766;2024-03-29T03:26:03;99554.53;;;6.19;80.39
63700;BME280;49845;47.130;142.766;2024-03-29T03:28:31;99549.38;;;6.16;80.82
63700;BME280;49845;47.130;142.766;2024-03-29T03:31:00;99540.00;;;6.04;81.32
63700;BME280;49845;47.130;142.766;2024-03-29T03:33:29;99532.25;;;6.02;82.33
63700;BME280;49845;47.130;142.766;2024-03-29T03:36:06;99521.91;;;5.96;83.21
63700;BME280;49845;47.130;142.766;2024-03-29T03:38:34;99523.66;;;5.97;83.69
63700;BME280;49845;47.130;142.766;2024-03-29T03:41:05;99509.75;;;6.01;83.57
63700;BME280;49845;47.130;142.766;2024-03-29T03:43:32;99495.84;;;6.09;84.27
63700;BME280;49845;47.130;142.766;2024-03-29T03:46:02;99470.81;;;6.08;84.38
63700;BME280;49845;47.130;142.766;2024-03-29T03:48:31;99491.28;;;6.32;84.56
63700;BME280;49845;47.130;142.766;2024-03-29T03:51:00;99480.72;;;6.47;84.13
63700;BME280;49845;47.130;142.766;2024-03-29T03:53:27;99476.25;;;6.59;84.06
63700;BME280;49845;47.130;142.766;2024-03-29T03:55:57;99479.53;;;6.73;83.35
63700;BME280;49845;47.130;142.766;2024-03-29T03:58:24;99474.28;;;6.79;83.14
63700;BME280;49845;47.130;142.766;2024-03-29T04:00:53;99481.16;;;6.80;83.10
63700;BME280;49845;47.130;142.766;2024-03-29T04:03:21;99481.22;;;6.77;82.80
63700;BME280;49845;47.130;142.766;2024-03-29T04:05:51;99481.28;;;6.71;82.78
63700;BME280;49845;47.130;142.766;2024-03-29T04:08:19;99472.69;;;6.66;83.38
63700;BME280;49845;47.130;142.766;2024-03-29T04:10:48;99451.28;;;6.52;83.80
63700;BME280;49845;47.130;142.766;2024-03-29T04:13:16;99441.84;;;6.44;84.44
63700;BME280;49845;47.130;142.766;2024-03-29T04:15:44;99438.31;;;6.48;84.97
63700;BME280;49845;47.130;142.766;2024-03-29T04:18:12;99433.91;;;6.55;85.10
63700;BME280;49845;47.130;142.766;2024-03-29T04:20:41;99427.00;;;6.54;84.85
63700;BME280;49845;47.130;142.766;2024-03-29T04:23:10;99418.44;;;6.49;84.55
63700;BME280;49845;47.130;142.766;2024-03-29T04:25:39;99396.66;;;6.58;85.20
63700;BME280;49845;47.130;142.766;2024-03-29T04:28:07;99388.00;;;6.59;84.11
63700;BME280;49845;47.130;142.766;2024-03-29T04:30:36;99384.75;;;6.44;84.42
63700;BME280;49845;47.130;142.766;2024-03-29T04:33:03;99379.69;;;6.35;84.12
63700;BME280;49845;47.130;142.766;2024-03-29T04:35:32;99379.78;;;6.26;84.78
63700;BME280;49845;47.130;142.766;2024-03-29T04:38:00;99371.34;;;6.12;84.21
63700;BME280;49845;47.130;142.766;2024-03-29T04:40:30;99364.53;;;6.01;85.39
63700;BME280;49845;47.130;142.766;2024-03-29T04:42:59;99353.16;;;6.13;85.69
63700;BME280;49845;47.130;142.766;2024-03-29T04:45:28;99346.22;;;6.17;85.76
63700;BME280;49845;47.130;142.766;2024-03-29T04:47:57;99340.19;;;6.15;84.81
63700;BME280;49845;47.130;142.766;2024-03-29T04:50:26;99336.78;;;6.10;85.19
63700;BME280;49845;47.130;142.766;2024-03-29T04:52:54;99336.84;;;6.03;85.23
63700;BME280;49845;47.130;142.766;2024-03-29T04:55:23;99326.53;;;6.00;84.97
63700;BME280;49845;47.130;142.766;2024-03-29T04:57:54;99323.88;;;6.05;85.45
63700;BME280;49845;47.130;142.766;2024-03-29T05:00:23;99316.16;;;6.00;85.29
63700;BME280;49845;47.130;142.766;2024-03-29T05:02:52;99312.66;;;6.01;85.36
63700;BME280;49845;47.130;142.766;2024-03-29T05:05:20;99302.38;;;5.95;85.49
63700;BME280;49845;47.130;142.766;2024-03-29T05:07:49;99290.28;;;5.91;86.06
63700;BME280;49845;47.130;142.766;2024-03-29T05:10:18;99286.06;;;5.87;86.32
63700;BME280;49845;47.130;142.766;2024-03-29T05:12:49;99290.28;;;5.91;86.84
63700;BME280;49845;47.130;142.766;2024-03-29T05:15:19;99287.56;;;6.05;86.86
63700;BME280;49845;47.130;142.766;2024-03-29T05:17:48;99273.84;;;5.97;86.08
63700;BME280;49845;47.130;142.766;2024-03-29T05:20:17;99254.94;;;5.87;86.12
63700;BME280;49845;47.130;142.766;2024-03-29T05:22:46;99248.00;;;5.89;86.51
63700;BME280;49845;47.130;142.766;2024-03-29T05:25:15;99248.97;;;5.82;86.59
63700;BME280;49845;47.130;142.766;2024-03-29T05:27:44;99241.13;;;5.85;87.25
63700;BME280;49845;47.130;142.766;2024-03-29T05:30:13;99209.41;;;5.68;87.20
63700;BME280;49845;47.130;142.766;2024-03-29T05:32:45;99214.66;;;5.61;87.77
63700;BME280;49845;47.130;142.766;2024-03-29T05:35:14;99223.31;;;5.60;88.58
63700;BME280;49845;47.130;142.766;2024-03-29T05:37:43;99230.94;;;5.71;88.89
63700;BME280;49845;47.130;142.766;2024-03-29T05:40:16;99226.75;;;5.62;88.66
63700;BME280;49845;47.130;142.766;2024-03-29T05:42:45;99227.75;;;5.52;88.71
63700;BME280;49845;47.130;142.766;2024-03-29T05:45:23;99195.84;;;5.47;89.08
63700;BME280;49845;47.130;142.766;2024-03-29T05:47:55;99067.28;;;4.73;89.29
63700;BME280;49845;47.130;142.766;2024-03-29T05:50:25;99186.28;;;5.51;90.08
63700;BME280;49845;47.130;142.766;2024-03-29T05:52:54;99188.81;;;5.55;90.03
63700;BME280;49845;47.130;142.766;2024-03-29T05:55:23;99185.50;;;5.47;90.07
63700;BME280;49845;47.130;142.766;2024-03-29T05:57:53;99189.03;;;5.40;90.78
63700;BME280;49845;47.130;142.766;2024-03-29T06:00:22;99182.19;;;5.34;90.82
63700;BME280;49845;47.130;142.766;2024-03-29T06:02:51;99180.59;;;5.23;91.08
63700;BME280;49845;47.130;142.766;2024-03-29T06:05:21;99175.44;;;5.23;91.80
63700;BME280;49845;47.130;142.766;2024-03-29T06:07:50;99160.03;;;5.10;91.54
63700;BME280;49845;47.130;142.766;2024-03-29T06:10:19;99153.16;;;5.09;92.52
63700;BME280;49845;47.130;142.766;2024-03-29T06:12:50;99153.28;;;4.97;92.56
63700;BME280;49845;47.130;142.766;2024-03-29T06:15:18;99156.88;;;4.87;92.86
63700;BME280;49845;47.130;142.766;2024-03-29T06:18:12;99140.66;;;4.69;93.53
63700;BME280;49845;47.130;142.766;2024-03-29T06:20:44;99137.31;;;4.60;94.73
63700;BME280;49845;47.130;142.766;2024-03-29T06:23:13;99131.34;;;4.51;95.61
63700;BME280;49845;47.130;142.766;2024-03-29T06:25:43;99111.56;;;4.46;96.32
63700;BME280;49845;47.130;142.766;2024-03-29T06:28:12;99117.69;;;4.36;96.55
63700;BME280;49845;47.130;142.766;2024-03-29T06:30:41;99113.47;;;4.28;97.94
63700;BME280;49845;47.130;142.766;2024-03-29T06:33:10;99113.53;;;4.19;98.63
63700;BME280;49845;47.130;142.766;2024-03-29T06:35:39;99113.53;;;4.22;99.51
63700;BME280;49845;47.130;142.766;2024-03-29T06:38:09;99104.84;;;4.26;100.00
63700;BME280;49845;47.130;142.766;2024-03-29T06:40:38;99083.31;;;4.27;99.99
63700;BME280;49845;47.130;142.766;2024-03-29T06:43:07;99088.47;;;4.27;99.90
63700;BME280;49845;47.130;142.766;2024-03-29T06:45:40;99083.34;;;4.24;99.86
63700;BME280;49845;47.130;142.766;2024-03-29T06:48:09;99061.91;;;4.13;100.00
63700;BME280;49845;47.130;142.766;2024-03-29T06:50:38;99072.22;;;4.15;99.90
63700;BME280;49845;47.130;142.766;2024-03-29T06:53:09;99051.59;;;4.10;100.00
63700;BME280;49845;47.130;142.766;2024-03-29T06:55:38;99060.06;;;4.24;100.00
63700;BME280;49845;47.130;142.766;2024-03-29T06:58:07;99038.69;;;4.07;99.99
63700;BME280;49845;47.130;142.766;2024-03-29T07:00:36;99059.34;;;4.10;99.75
63700;BME280;49845;47.130;142.766;2024-03-29T07:03:05;99049.84;;;4.09;100.00
63700;BME280;49845;47.130;142.766;2024-03-29T07:05:34;99037.78;;;4.11;100.00
63700;BME280;49845;47.130;142.766;2024-03-29T07:08:03;99006.09;;;3.92;100.00
63700;BME280;49845;47.130;142.766;2024-03-29T07:10:34;99032.56;;;4.14;99.85
63700;BME280;49845;47.130;142.766;2024-03-29T07:13:03;99030.88;;;4.11;99.71
63700;BME280;49845;47.130;142.766;2024-03-29T07:15:33;99045.50;;;4.14;100.00
63700;BME280;49845;47.130;142.766;2024-03-29T07:18:02;99021.44;;;4.09;99.79
63700;BME280;49845;47.130;142.766;2024-03-29T07:20:31;99033.47;;;4.13;100.00
63700;BME280;49845;47.130;142.766;2024-03-29T07:23:00;99024.00;;;4.09;99.93
63700;BME280;49845;47.130;142.766;2024-03-29T07:25:29;99025.78;;;4.07;99.97
63700;BME280;49845;47.130;142.766;2024-03-29T07:27:59;99023.25;;;4.01;99.92
63700;BME280;49845;47.130;142.766;2024-03-29T07:30:28;99025.81;;;4.02;100.00
63700;BME280;49845;47.130;142.766;2024-03-29T07:32:57;99027.53;;;4.03;100.00
63700;BME280;49845;47.130;142.766;2024-03-29T07:35:26;99024.16;;;3.94;100.00
63700;BME280;49845;47.130;142.766;2024-03-29T07:37:55;99023.38;;;3.85;100.00
63700;BME280;49845;47.130;142.766;2024-03-29T07:40:24;99019.06;;;3.86;100.00
63700;BME280;49845;47.130;142.766;2024-03-29T07:42:53;99017.41;;;3.79;100.00
63700;BME280;49845;47.130;142.766;2024-03-29T07:45:24;99014.72;;;3.93;100.00
63700;BME280;49845;47.130;142.766;2024-03-29T07:47:53;99011.25;;;3.94;100.00
63700;BME280;49845;47.130;142.766;2024-03-29T07:50:22;99022.50;;;3.86;100.00
63700;BME280;49845;47.130;142.766;2024-03-29T07:52:51;99018.25;;;3.82;100.00
63700;BME280;49845;47.130;142.766;2024-03-29T07:55:20;98994.22;;;3.71;100.00
63700;BME280;49845;47.130;142.766;2024-03-29T07:57:49;99006.25;;;3.75;100.00
63700;BME280;49845;47.130;142.766;2024-03-29T08:00:18;99009.75;;;3.68;100.00
63700;BME280;49845;47.130;142.766;2024-03-29T08:02:49;99018.41;;;3.64;100.00
63700;BME280;49845;47.130;142.766;2024-03-29T08:05:21;99042.56;;;3.60;100.00
63700;BME280;49845;47.130;142.766;2024-03-29T08:07:50;99015.78;;;3.68;100.00
63700;BME280;49845;47.130;142.766;2024-03-29T08:10:18;99015.88;;;3.58;100.00
63700;BME280;49845;47.130;142.766;2024-03-29T08:12:47;99004.75;;;3.50;100.00
63700;BME280;49845;47.130;142.766;2024-03-29T08:15:17;99008.19;;;3.50;100.00
63700;BME280;49845;47.130;142.766;2024-03-29T08:17:49;99008.19;;;3.49;100.00
63700;BME280;49845;47.130;142.766;2024-03-29T08:20:18;99009.88;;;3.53;100.00
63700;BME280;49845;47.130;142.766;2024-03-29T08:22:47;99013.28;;;3.58;100.00
63700;BME280;49845;47.130;142.766;2024-03-29T08:25:16;99015.91;;;3.52;100.00
63700;BME280;49845;47.130;142.766;2024-03-29T08:27:45;99018.53;;;3.49;100.00
63700;BME280;49845;47.130;142.766;2024-03-29T08:30:14;99010.91;;;3.35;100.00
63700;BME280;49845;47.130;142.766;2024-03-29T08:32:43;99011.78;;;3.29;100.00
63700;BME280;49845;47.130;142.766;2024-03-29T08:35:13;98998.94;;;3.17;100.00
63700;BME280;49845;47.130;142.766;2024-03-29T08:37:42;98995.53;;;3.18;100.00
63700;BME280;49845;47.130;142.766;2024-03-29T08:40:12;98988.69;;;3.11;100.00
63700;BME280;49845;47.130;142.766;2024-03-29T08:42:41;98991.19;;;3.17;100.00
63700;BME280;49845;47.130;142.766;2024-03-29T08:45:10;98986.06;;;3.14;100.00
63700;BME280;49845;47.130;142.766;2024-03-29T08:47:39;98944.13;;;2.86;100.00
63700;BME280;49845;47.130;142.766;2024-03-29T08:50:09;98987.00;;;3.03;100.00
63700;BME280;49845;47.130;142.766;2024-03-29T08:52:40;98986.19;;;2.95;100.00
63700;BME280;49845;47.130;142.766;2024-03-29T08:55:09;98982.75;;;2.96;100.00
63700;BME280;49845;47.130;142.766;2024-03-29T08:57:38;98978.47;;;2.95;100.00
63700;BME280;49845;47.130;142.766;2024-03-29T09:00:09;98970.72;;;2.95;100.00
63700;BME280;49845;47.130;142.766;2024-03-29T09:02:38;98965.56;;;2.89;100.00
63700;BME280;49845;47.130;142.766;2024-03-29T09:05:07;98969.03;;;2.87;100.00
63700;BME280;49845;47.130;142.766;2024-03-29T09:07:36;98963.94;;;2.76;100.00
63700;BME280;49845;47.130;142.766;2024-03-29T09:10:07;98973.47;;;2.66;100.00
63700;BME280;49845;47.130;142.766;2024-03-29T09:12:36;98977.78;;;2.63;100.00
63700;BME280;49845;47.130;142.766;2024-03-29T09:15:06;98967.50;;;2.52;100.00
63700;BME280;49845;47.130;142.766;2024-03-29T09:17:40;98977.81;;;2.53;100.00
63700;BME280;49845;47.130;142.766;2024-03-29T09:20:10;98975.28;;;2.46;100.00
63700;BME280;49845;47.130;142.766;2024-03-29T09:22:39;98967.56;;;2.38;100.00
63700;BME280;49845;47.130;142.766;2024-03-29T09:25:09;98958.13;;;2.38;100.00
63700;BME280;49845;47.130;142.766;2024-03-29T09:27:41;98952.13;;;2.29;100.00
63700;BME280;49845;47.130;142.766;2024-03-29T09:30:12;98952.09;;;2.41;100.00
63700;BME280;49845;47.130;142.766;2024-03-29T09:32:42;98947.81;;;2.40;100.00
63700;BME280;49845;47.130;142.766;2024-03-29T09:35:11;98936.59;;;2.44;100.00
63700;BME280;49845;47.130;142.766;2024-03-29T09:37:39;98932.31;;;2.45;100.00
63700;BME280;49845;47.130;142.766;2024-03-29T09:40:11;98926.31;;;2.43;100.00
63700;BME280;49845;47.130;142.766;2024-03-29T09:42:43;98928.88;;;2.41;100.00
63700;BME280;49845;47.130;142.766;2024-03-29T09:45:12;98930.56;;;2.48;100.00
63700;BME280;49845;47.130;142.766;2024-03-29T09:47:42;98933.13;;;2.51;100.00
63700;BME280;49845;47.130;142.766;2024-03-29T09:50:11;98922.78;;;2.54;100.00
63700;BME280;49845;47.130;142.766;2024-03-29T09:52:41;98908.25;;;2.46;100.00
63700;BME280;49845;47.130;142.766;2024-03-29T09:55:12;98897.94;;;2.44;100.00
63700;BME280;49845;47.130;142.766;2024-03-29T09:57:41;98897.97;;;2.43;100.00
63700;BME280;49845;47.130;142.766;2024-03-29T10:00:12;98897.97;;;2.43;100.00
63700;BME280;49845;47.130;142.766;2024-03-29T10:02:40;98885.91;;;2.45;100.00
63700;BME280;49845;47.130;142.766;2024-03-29T10:05:11;98891.94;;;2.42;100.00
63700;BME280;49845;47.130;142.766;2024-03-29T10:07:41;98900.56;;;2.38;100.00
63700;BME280;49845;47.130;142.766;2024-03-29T10:10:12;98917.75;;;2.33;100.00
63700;BME280;49845;47.130;142.766;2024-03-29T10:12:41;98910.91;;;2.26;100.00
63700;BME280;49845;47.130;142.766;2024-03-29T10:15:11;98917.81;;;2.21;100.00
63700;BME280;49845;47.130;142.766;2024-03-29T10:17:46;98910.03;;;2.27;100.00
63700;BME280;49845;47.130;142.766;2024-03-29T10:20:17;98908.31;;;2.35;100.00
63700;BME280;49845;47.130;142.766;2024-03-29T10:22:46;98893.75;;;2.28;100.00
63700;BME280;49845;47.130;142.766;2024-03-29T10:25:16;98880.88;;;2.19;100.00
63700;BME280;49845;47.130;142.766;2024-03-29T10:27:46;98888.59;;;2.28;100.00
63700;BME280;49845;47.130;142.766;2024-03-29T10:30:15;98883.41;;;2.31;100.00
63700;BME280;49845;47.130;142.766;2024-03-29T10:32:47;98891.97;;;2.36;100.00
63700;BME280;49845;47.130;142.766;2024-03-29T10:35:16;98907.41;;;2.39;100.00
63700;BME280;49845;47.130;142.766;2024-03-29T10:37:45;98905.72;;;2.38;100.00
63700;BME280;49845;47.130;142.766;2024-03-29T10:40:16;98898.00;;;2.33;100.00
63700;BME280;49845;47.130;142.766;2024-03-29T10:42:46;98888.59;;;2.28;100.00
63700;BME280;49845;47.130;142.766;2024-03-29T10:45:15;98886.84;;;2.27;100.00
63700;BME280;49845;47.130;142.766;2024-03-29T10:47:45;98873.13;;;2.25;100.00
63700;BME280;49845;47.130;142.766;2024-03-29T10:50:15;98886.88;;;2.24;100.00
63700;BME280;49845;47.130;142.766;2024-03-29T10:52:46;98832.91;;;1.93;100.00
63700;BME280;49845;47.130;142.766;2024-03-29T10:55:17;98828.63;;;1.95;100.00
63700;BME280;49845;47.130;142.766;2024-03-29T10:57:46;98879.94;;;2.32;100.00
63700;BME280;49845;47.130;142.766;2024-03-29T11:00:18;98876.53;;;2.33;100.00
63700;BME280;49845;47.130;142.766;2024-03-29T11:02:49;98876.50;;;2.36;100.00
63700;BME280;49845;47.130;142.766;2024-03-29T11:05:19;98823.41;;;2.04;100.00
63700;BME280;49845;47.130;142.766;2024-03-29T11:07:50;98881.72;;;2.24;100.00
63700;BME280;49845;47.130;142.766;2024-03-29T11:10:25;98881.75;;;2.14;100.00
63700;BME280;49845;47.130;142.766;2024-03-29T11:13:01;98846.69;;;1.86;100.00
63700;BME280;49845;47.130;142.766;2024-03-29T11:15:37;98881.78;;;2.11;100.00
63700;BME280;49845;47.130;142.766;2024-03-29T11:18:07;98881.78;;;2.11;100.00
63700;BME280;49845;47.130;142.766;2024-03-29T11:20:37;98881.78;;;2.11;100.00
63700;BME280;49845;47.130;142.766;2024-03-29T11:23:09;98874.91;;;2.10;100.00
63700;BME280;49845;47.130;142.766;2024-03-29T11:25:44;98852.63;;;1.97;100.00
63700;BME280;49845;47.130;142.766;2024-03-29T11:28:14;98871.47;;;2.08;100.00
63700;BME280;49845;47.130;142.766;2024-03-29T11:30:48;98862.91;;;2.03;100.00
63700;BME280;49845;47.130;142.766;2024-03-29T11:33:29;98873.19;;;2.09;100.00
63700;BME280;49845;47.130;142.766;2024-03-29T11:35:58;98868.03;;;2.09;100.00
63700;BME280;49845;47.130;142.766;2024-03-29T11:38:34;98869.75;;;2.10;100.00
63700;BME280;49845;47.130;142.766;2024-03-29T11:41:06;98876.63;;;2.08;100.00
63700;BME280;49845;47.130;142.766;2024-03-29T11:43:36;98874.06;;;2.08;100.00
63700;BME280;49845;47.130;142.766;2024-03-29T11:46:06;98861.19;;;2.05;100.00
63700;BME280;49845;47.130;142.766;2024-03-29T11:48:35;98866.28;;;2.14;100.00
63700;BME280;49845;47.130;142.766;2024-03-29T11:51:06;98861.13;;;2.16;100.00
63700;BME280;49845;47.130;142.766;2024-03-29T11:53:37;98861.16;;;2.11;100.00
63700;BME280;49845;47.130;142.766;2024-03-29T11:56:09;98825.22;;;1.90;100.00
63700;BME280;49845;47.130;142.766;2024-03-29T11:58:38;98852.59;;;2.12;100.00
63700;BME280;49845;47.130;142.766;2024-03-29T12:01:08;98826.84;;;2.03;100.00
63700;BME280;49845;47.130;142.766;2024-03-29T12:03:38;98831.91;;;2.17;100.00
63700;BME280;49845;47.130;142.766;2024-03-29T12:06:08;98837.13;;;2.09;100.00
63700;BME280;49845;47.130;142.766;2024-03-29T12:08:38;98850.81;;;2.14;100.00
63700;BME280;49845;47.130;142.766;2024-03-29T12:11:12;98859.41;;;2.16;100.00
63700;BME280;49845;47.130;142.766;2024-03-29T12:13:40;98864.56;;;2.23;100.00
63700;BME280;49845;47.130;142.766;2024-03-29T12:16:09;98874.84;;;2.26;100.00
63700;BME280;49845;47.130;142.766;2024-03-29T12:18:40;98877.44;;;2.23;100.00
63700;BME280;49845;47.130;142.766;2024-03-29T12:21:09;98881.75;;;2.21;100.00
63700;BME280;49845;47.130;142.766;2024-03-29T12:23:47;98887.75;;;2.20;100.00
63700;BME280;49845;47.130;142.766;2024-03-29T12:26:18;98871.44;;;2.18;100.00
63700;BME280;49845;47.130;142.766;2024-03-29T12:28:50;98885.16;;;2.20;100.00
63700;BME280;49845;47.130;142.766;2024-03-29T12:31:18;98883.44;;;2.22;100.00
63700;BME280;49845;47.130;142.766;2024-03-29T12:33:52;98878.28;;;2.22;100.00
63700;BME280;49845;47.130;142.766;2024-03-29T12:36:25;98881.72;;;2.24;100.00
63700;BME280;49845;47.130;142.766;2024-03-29T12:38:55;98880.88;;;2.23;100.00
63700;BME280;49845;47.130;142.766;2024-03-29T12:41:27;98864.56;;;2.23;100.00
63700;BME280;49845;47.130;142.766;2024-03-29T12:43:57;98861.94;;;2.24;100.00
63700;BME280;49845;47.130;142.766;2024-03-29T12:46:26;98855.91;;;2.27;100.00
63700;BME280;49845;47.130;142.766;2024-03-29T12:48:59;98843.91;;;2.26;100.00
63700;BME280;49845;47.130;142.766;2024-03-29T12:51:28;98832.75;;;2.25;100.00
63700;BME280;49845;47.130;142.766;2024-03-29T12:54:02;98835.31;;;2.27;100.00
63700;BME280;49845;47.130;142.766;2024-03-29T12:56:33;98805.34;;;2.09;100.00